Time,TemperatureF,DewpointF,PressureIn,WindDirection,WindDirectionDegrees,WindSpeedMPH,WindSpeedGustMPH,Humidity,HourlyPrecipIn,Conditions,Clouds,dailyrainin,SoftwareType,DateUTC
2013-06-21 00:08:00,73.9,72.0,30.07,ENE,69,0.0,0.0,93,0.00,,,0.00,weatherlink.com 1.10,2013-06-21 05:08:00,
2013-06-21 00:23:00,73.9,72.0,30.06,ENE,74,0.0,1.0,93,0.00,,,0.00,weatherlink.com 1.10,2013-06-21 05:23:00,
2013-06-21 00:38:00,73.9,72.0,30.07,NNW,330,0.0,1.0,93,0.00,,,0.00,weatherlink.com 1.10,2013-06-21 05:38:00,
2013-06-21 00:53:00,73.9,72.0,30.06,NE,44,0.0,1.0,93,0.00,,,0.00,weatherlink.com 1.10,2013-06-21 05:53:00,
2013-06-21 01:08:00,74.4,72.0,30.06,NNE,18,3.0,3.0,92,0.00,,,0.00,weatherlink.com 1.10,2013-06-21 06:08:00,
2013-06-21 01:24:00,74.3,72.0,30.05,NNE,13,0.0,2.0,91,0.00,,,0.00,weatherlink.com 1.10,2013-06-21 06:24:00,
2013-06-21 01:39:00,74.1,72.0,30.05,NNW,345,0.0,1.0,92,0.00,,,0.00,weatherlink.com 1.10,2013-06-21 06:39:00,
2013-06-21 01:54:00,74.0,72.0,30.05,NNW,348,0.0,3.0,92,0.00,,,0.00,weatherlink.com 1.10,2013-06-21 06:54:00,
2013-06-21 02:09:00,73.9,72.0,30.04,ENE,65,0.0,1.0,92,0.00,,,0.00,weatherlink.com 1.10,2013-06-21 07:09:00,
2013-06-21 02:24:00,73.6,71.0,30.04,NE,47,0.0,0.0,92,0.00,,,0.00,weatherlink.com 1.10,2013-06-21 07:24:00,
2013-06-21 02:39:00,73.3,71.0,30.04,NW,311,0.0,3.0,92,0.00,,,0.00,weatherlink.com 1.10,2013-06-21 07:39:00,
2013-06-21 02:54:00,73.2,71.0,30.04,North,354,2.0,2.0,93,0.00,,,0.00,weatherlink.com 1.10,2013-06-21 07:54:00,
2013-06-21 03:09:00,72.9,71.0,30.04,NNW,345,1.0,1.0,93,0.00,,,0.00,weatherlink.com 1.10,2013-06-21 08:09:00,
2013-06-21 03:24:00,72.8,71.0,30.04,SW,221,0.0,1.0,93,0.00,,,0.00,weatherlink.com 1.10,2013-06-21 08:24:00,
2013-06-21 03:39:00,72.4,71.0,30.04,North,357,0.0,1.0,94,0.00,,,0.00,weatherlink.com 1.10,2013-06-21 08:39:00,
2013-06-21 03:54:00,72.1,70.0,30.04,NNE,12,0.0,2.0,94,0.00,,,0.00,weatherlink.com 1.10,2013-06-21 08:54:00,
2013-06-21 04:09:00,71.9,71.0,30.04,NNW,342,0.0,1.0,95,0.00,,,0.00,weatherlink.com 1.10,2013-06-21 09:09:00,
2013-06-21 04:24:00,71.8,70.0,30.05,NNW,345,0.0,1.0,95,0.00,,,0.00,weatherlink.com 1.10,2013-06-21 09:24:00,
2013-06-21 04:39:00,71.9,71.0,30.05,North,353,0.0,3.0,95,0.00,,,0.00,weatherlink.com 1.10,2013-06-21 09:39:00,
2013-06-21 04:54:00,71.6,70.0,30.05,ENE,77,1.0,2.0,95,0.00,,,0.00,weatherlink.com 1.10,2013-06-21 09:54:00,
2013-06-21 05:09:00,71.4,70.0,30.05,NNE,18,1.0,4.0,96,0.00,,,0.00,weatherlink.com 1.10,2013-06-21 10:09:00,
2013-06-21 05:24:00,71.4,70.0,30.06,NE,37,0.0,3.0,96,0.00,,,0.00,weatherlink.com 1.10,2013-06-21 10:24:00,
2013-06-21 05:39:00,71.2,70.0,30.07,ENE,68,1.0,3.0,96,0.00,,,0.00,weatherlink.com 1.10,2013-06-21 10:39:00,
2013-06-21 05:54:00,71.2,70.0,30.07,WNW,296,1.0,2.0,96,0.00,,,0.00,weatherlink.com 1.10,2013-06-21 10:54:00,
2013-06-21 06:09:00,71.3,70.0,30.08,NNE,15,0.0,1.0,96,0.00,,,0.00,weatherlink.com 1.10,2013-06-21 11:09:00,
2013-06-21 06:24:00,71.7,71.0,30.08,East,96,1.0,2.0,96,0.00,,,0.00,weatherlink.com 1.10,2013-06-21 11:24:00,
2013-06-21 06:39:00,72.7,71.0,30.08,North,5,0.0,2.0,95,0.00,,,0.00,weatherlink.com 1.10,2013-06-21 11:39:00,
2013-06-21 06:54:00,73.4,72.0,30.09,NE,51,0.0,4.0,94,0.00,,,0.00,weatherlink.com 1.10,2013-06-21 11:54:00,
2013-06-21 07:09:00,74.2,72.0,30.09,NW,325,1.0,3.0,93,0.00,,,0.00,weatherlink.com 1.10,2013-06-21 12:09:00,
2013-06-21 07:24:00,74.7,72.0,30.09,ENE,64,0.0,6.0,92,0.00,,,0.00,weatherlink.com 1.10,2013-06-21 12:24:00,
2013-06-21 07:39:00,75.1,72.0,30.10,NNE,15,2.0,8.0,91,0.00,,,0.00,weatherlink.com 1.10,2013-06-21 12:39:00,
2013-06-21 07:54:00,75.4,73.0,30.10,NNE,25,0.0,7.0,91,0.00,,,0.00,weatherlink.com 1.10,2013-06-21 12:54:00,
2013-06-21 08:09:00,76.1,73.0,30.11,SSE,155,1.0,3.0,91,0.00,,,0.00,weatherlink.com 1.10,2013-06-21 13:09:00,
2013-06-21 08:24:00,76.6,73.0,30.11,ENE,75,4.0,5.0,89,0.00,,,0.00,weatherlink.com 1.10,2013-06-21 13:24:00,
2013-06-21 08:39:00,77.5,74.0,30.11,East,88,1.0,4.0,89,0.00,,,0.00,weatherlink.com 1.10,2013-06-21 13:39:00,
2013-06-21 08:54:00,77.8,74.0,30.11,ENE,60,5.0,5.0,88,0.00,,,0.00,weatherlink.com 1.10,2013-06-21 13:54:00,
2013-06-21 09:09:00,78.3,74.0,30.11,East,92,0.0,5.0,87,0.00,,,0.00,weatherlink.com 1.10,2013-06-21 14:09:00,
2013-06-21 09:24:00,78.8,74.0,30.12,NNE,27,2.0,6.0,85,0.00,,,0.00,weatherlink.com 1.10,2013-06-21 14:24:00,
2013-06-21 09:39:00,78.6,74.0,30.12,NE,50,6.0,6.0,86,0.00,,,0.00,weatherlink.com 1.10,2013-06-21 14:39:00,
2013-06-21 09:54:00,78.6,75.0,30.12,ENE,72,2.0,5.0,87,0.00,,,0.00,weatherlink.com 1.10,2013-06-21 14:54:00,
2013-06-21 10:25:00,80.5,75.0,30.12,West,278,3.0,7.0,82,0.00,,,0.00,weatherlink.com 1.10,2013-06-21 15:25:00,
2013-06-21 10:40:00,81.8,75.0,30.12,SSE,158,3.0,7.0,79,0.00,,,0.00,weatherlink.com 1.10,2013-06-21 15:40:00,
2013-06-21 10:55:00,82.4,75.0,30.12,East,98,3.0,5.0,77,0.00,,,0.00,weatherlink.com 1.10,2013-06-21 15:55:00,
2013-06-21 11:10:00,83.9,75.0,30.12,ESE,111,4.0,6.0,75,0.00,,,0.00,weatherlink.com 1.10,2013-06-21 16:10:00,
2013-06-21 11:25:00,83.7,74.0,30.11,SE,132,1.0,6.0,73,0.00,,,0.00,weatherlink.com 1.10,2013-06-21 16:25:00,
2013-06-21 11:55:00,85.0,75.0,30.11,East,100,0.0,4.0,73,0.00,,,0.00,weatherlink.com 1.10,2013-06-21 16:55:00,
2013-06-21 12:10:00,86.0,75.0,30.11,North,11,3.0,7.0,69,0.00,,,0.00,weatherlink.com 1.10,2013-06-21 17:10:00,
2013-06-21 12:25:00,84.9,76.0,30.11,North,349,2.0,4.0,74,0.00,,,0.00,weatherlink.com 1.10,2013-06-21 17:25:00,
2013-06-21 12:40:00,85.1,74.0,30.11,NE,46,0.0,4.0,70,0.00,,,0.00,weatherlink.com 1.10,2013-06-21 17:40:00,
2013-06-21 13:10:00,85.3,74.0,30.10,East,91,3.0,6.0,69,0.00,,,0.00,weatherlink.com 1.10,2013-06-21 18:10:00,
2013-06-21 13:25:00,86.7,74.0,30.09,North,3,2.0,5.0,67,0.00,,,0.00,weatherlink.com 1.10,2013-06-21 18:25:00,
2013-06-21 13:55:00,87.5,75.0,30.09,North,349,4.0,8.0,67,0.00,,,0.00,weatherlink.com 1.10,2013-06-21 18:55:00,
2013-06-21 14:10:00,88.0,75.0,30.08,WSW,243,2.0,6.0,66,0.00,,,0.00,weatherlink.com 1.10,2013-06-21 19:10:00,
2013-06-21 14:25:00,88.6,73.0,30.08,NE,53,2.0,7.0,60,0.00,,,0.00,weatherlink.com 1.10,2013-06-21 19:25:00,
2013-06-21 14:40:00,88.8,75.0,30.07,East,95,3.0,6.0,63,0.00,,,0.00,weatherlink.com 1.10,2013-06-21 19:40:00,
2013-06-21 14:55:00,89.3,75.0,30.07,NNE,32,4.0,5.0,62,0.00,,,0.00,weatherlink.com 1.10,2013-06-21 19:55:00,
2013-06-21 15:10:00,88.7,72.0,30.07,NE,46,2.0,5.0,58,0.00,,,0.00,weatherlink.com 1.10,2013-06-21 20:10:00,
2013-06-21 15:25:00,88.7,74.0,30.07,East,86,1.0,12.0,61,0.00,,,0.00,weatherlink.com 1.10,2013-06-21 20:25:00,
2013-06-21 15:41:00,88.7,72.0,30.06,NNE,19,2.0,9.0,58,0.00,,,0.00,weatherlink.com 1.10,2013-06-21 20:41:00,
2013-06-21 15:55:00,86.5,73.0,30.06,ENE,73,2.0,4.0,64,0.00,,,0.00,weatherlink.com 1.10,2013-06-21 20:55:00,
2013-06-21 16:10:00,87.9,74.0,30.05,NE,50,5.0,5.0,63,0.00,,,0.00,weatherlink.com 1.10,2013-06-21 21:10:00,
2013-06-21 16:25:00,87.4,72.0,30.05,ENE,69,2.0,6.0,61,0.00,,,0.00,weatherlink.com 1.10,2013-06-21 21:25:00,
2013-06-21 16:40:00,87.6,72.0,30.05,West,264,1.0,6.0,61,0.00,,,0.00,weatherlink.com 1.10,2013-06-21 21:40:00,
2013-06-21 16:55:00,87.4,73.0,30.04,ESE,106,5.0,6.0,63,0.00,,,0.00,weatherlink.com 1.10,2013-06-21 21:55:00,
2013-06-21 17:10:00,87.3,72.0,30.04,North,353,0.0,9.0,61,0.00,,,0.00,weatherlink.com 1.10,2013-06-21 22:10:00,
2013-06-21 17:25:00,87.4,71.0,30.04,NNW,332,2.0,6.0,59,0.00,,,0.00,weatherlink.com 1.10,2013-06-21 22:25:00,
2013-06-21 17:40:00,87.1,72.0,30.04,NE,39,1.0,3.0,61,0.00,,,0.00,weatherlink.com 1.10,2013-06-21 22:40:00,
2013-06-21 17:55:00,86.5,71.0,30.04,WNW,302,5.0,6.0,61,0.00,,,0.00,weatherlink.com 1.10,2013-06-21 22:55:00,
2013-06-21 18:10:00,86.2,73.0,30.04,NW,326,0.0,4.0,64,0.00,,,0.00,weatherlink.com 1.10,2013-06-21 23:10:00,
2013-06-21 18:25:00,85.3,71.0,30.05,NNE,23,0.0,5.0,62,0.00,,,0.00,weatherlink.com 1.10,2013-06-21 23:25:00,
2013-06-21 18:40:00,84.6,72.0,30.05,NNE,25,0.0,3.0,65,0.00,,,0.00,weatherlink.com 1.10,2013-06-21 23:40:00,
2013-06-21 18:55:00,83.7,72.0,30.05,NNW,340,0.0,1.0,68,0.00,,,0.00,weatherlink.com 1.10,2013-06-21 23:55:00,
2013-06-21 19:10:00,82.9,72.0,30.05,NNW,345,0.0,1.0,70,0.00,,,0.00,weatherlink.com 1.10,2013-06-22 00:10:00,
2013-06-21 19:25:00,81.5,73.0,30.05,East,96,0.0,1.0,74,0.00,,,0.00,weatherlink.com 1.10,2013-06-22 00:25:00,
2013-06-21 19:40:00,80.1,72.0,30.06,ENE,72,0.0,0.0,75,0.00,,,0.00,weatherlink.com 1.10,2013-06-22 00:40:00,
2013-06-21 19:55:00,79.3,71.0,30.06,ESE,111,1.0,1.0,75,0.00,,,0.00,weatherlink.com 1.10,2013-06-22 00:55:00,
2013-06-21 20:10:00,78.3,71.0,30.06,East,81,1.0,1.0,77,0.00,,,0.00,weatherlink.com 1.10,2013-06-22 01:10:00,
2013-06-21 20:25:00,78.0,70.0,30.06,ENE,78,0.0,0.0,76,0.00,,,0.00,weatherlink.com 1.10,2013-06-22 01:25:00,
2013-06-21 20:40:00,77.2,70.0,30.07,East,79,0.0,0.0,79,0.00,,,0.00,weatherlink.com 1.10,2013-06-22 01:40:00,
2013-06-21 20:55:00,76.4,70.0,30.07,SE,131,0.0,1.0,80,0.00,,,0.00,weatherlink.com 1.10,2013-06-22 01:55:00,
2013-06-21 21:10:00,76.3,70.0,30.07,SE,136,0.0,0.0,80,0.00,,,0.00,weatherlink.com 1.10,2013-06-22 02:10:00,
2013-06-21 21:26:00,76.4,69.0,30.07,SE,124,0.0,2.0,79,0.00,,,0.00,weatherlink.com 1.10,2013-06-22 02:26:00,
2013-06-21 21:40:00,76.0,69.0,30.08,SE,131,0.0,1.0,80,0.00,,,0.00,weatherlink.com 1.10,2013-06-22 02:40:00,
2013-06-21 21:55:00,74.9,70.0,30.08,SE,131,0.0,0.0,84,0.00,,,0.00,weatherlink.com 1.10,2013-06-22 02:55:00,
2013-06-21 22:11:00,74.1,69.0,30.07,SE,131,0.0,1.0,84,0.00,,,0.00,weatherlink.com 1.10,2013-06-22 03:11:00,
2013-06-21 22:26:00,73.9,69.0,30.08,SE,131,0.0,0.0,85,0.00,,,0.00,weatherlink.com 1.10,2013-06-22 03:26:00,
2013-06-21 22:41:00,73.7,69.0,30.08,SE,127,0.0,0.0,85,0.00,,,0.00,weatherlink.com 1.10,2013-06-22 03:41:00,
2013-06-21 22:56:00,73.4,69.0,30.07,SE,127,0.0,0.0,85,0.00,,,0.00,weatherlink.com 1.10,2013-06-22 03:56:00,
2013-06-21 23:11:00,73.6,69.0,30.08,SE,132,0.0,1.0,85,0.00,,,0.00,weatherlink.com 1.10,2013-06-22 04:11:00,
2013-06-21 23:26:00,73.8,69.0,30.08,NE,34,0.0,4.0,85,0.00,,,0.00,weatherlink.com 1.10,2013-06-22 04:26:00,
2013-06-21 23:41:00,73.0,69.0,30.08,NE,35,0.0,1.0,86,0.00,,,0.00,weatherlink.com 1.10,2013-06-22 04:41:00,
2013-06-21 23:56:00,71.5,68.0,30.08,NE,44,0.0,0.0,89,0.00,,,0.00,weatherlink.com 1.10,2013-06-22 04:56:00,